NATURA VA

 INFORMACIÓN METAR y TAF
METAR FOR LESA
ADDS - METARS form results

(0119 UTC 20 May 2019)
Data provider http://aviationweather.gov/metar/data/
 
METAR text: LESA 200100Z AUTO 23002KT 9000 NCD 05/M02 Q1013
Conditions at: LESA (SALAMANCA (CIV/M, ES) observed 0100 UTC 20 May 2019
Temperature: 5.0°C (41°F)
Dewpoint: -2.0°C (28°F) [RH = 60%]
Pressure (altimeter): 29.91 inches Hg (1013.0 mb)
Winds: from the SW (230 degrees) at 2 MPH (2 knots; 1.0 m/s)
Visibility: 6 miles ( 9 km)
Ceiling: at least 12,000 feet AGL
Clouds: sky clear below 12,000 feet AGL
Weather: no significant weather observed at this time

METAR text: LESA 200030Z AUTO VRB01KT 9000 NCD 07/M01 Q1014
Conditions at: LESA (SALAMANCA (CIV/M, ES) observed 0030 UTC 20 May 2019
Temperature: 7.0°C (45°F)
Dewpoint: -1.0°C (30°F) [RH = 57%]
Pressure (altimeter): 29.94 inches Hg (1014.0 mb)
Winds: variable direction winds at 1 MPH (1 knots; 0.5 m/s)
Visibility: 6 miles ( 9 km)
Ceiling: at least 12,000 feet AGL
Clouds: sky clear below 12,000 feet AGL
Weather: no significant weather observed at this time

Forecast for: LESA (SALAMANCA (CIV/M, ES)
Text: TAF LESA 192300Z 2000/2024 VRB05KT CAVOK TX21/2016Z TN04/2005Z
Forecast period: 0000 UTC 20 May 2019 to 0000 UTC 21 May 2019
Forecast type: FROM: standard forecast or significant change
Winds: variable direction winds at 6 MPH (5 knots; 2.6 m/s)
Visibility: 6 or more miles 10+ km)
Ceiling: unknown
Clouds: missing
Weather: no significant weather forecast for this period
Text: TEMPO 2016/2020 30010KT
Forecast period: 1600 to 2000 UTC 20 May 2019
Forecast type: TEMPORARY: The following changes expected for less than half the time period
Winds: from the WNW (300 degrees) at 12 MPH (10 knots; 5.1 m/s)
Visibility: missing
Ceiling: unknown
Clouds: missing
Weather: no significant weather forecast for this period

 MAPA DE AEROPUERTO

 INFORMACIÓN DE PISTA
Pista 03 Longitud 8202 ft Ancho 197 ft
Elevación 2595 ft Umbral desplazado 0 ft Rumbo de pista 28
Pista 21 Longitud 8202 ft Ancho 197 ft
Elevación 2586 ft Umbral desplazado 0 ft Rumbo de pista 208
Pista 08 Longitud 6594 ft Ancho 400 ft
Elevación 2587 ft Umbral desplazado 0 ft Rumbo de pista 74
Pista 26 Longitud 6594 ft Ancho 400 ft
Elevación 2588 ft Umbral desplazado 0 ft Rumbo de pista 254

 FRECUANCIAS DEL AEROPUERTO
Tipo APP Nombre APP Frecuencia 124.4 MHZ
Tipo GND Nombre GND Frecuencia 121.85 MHZ
Tipo TWR Nombre TWR Frecuencia 139.3 MHZ

 RADIO AYUDAS DEL AEROPUERTO
Tipo VOR-DME Nombre Salamanca Frecuencia 112200 KHZ
Tipo NDB Nombre Salamanca Frecuencia 399 KHZ
Tipo NDB Nombre Salamanca Frecuencia 423 KHZ
Tipo TACAN Nombre Salamanca Frecuencia 113300 KHZ



Powered by Virtual Airlines Manager [v2.6.2]